Roeselare, Belgium
Current Conditions -  °F | °C
As of 2:20 PM on Wednesday 22 Oct 2014 (Local Time) from EBOS Reporting Station
Scattered Clouds Scattered Clouds  
Wind Chill: 55°   Ceiling: Unl
Heat Index: 55°   Visibility: 6mi
Dew Point: 41°   Wind: 20mph
Humidity: 58%   Direction: 310°NW
Pressure: 30.21"   Gusts: NA
Location:  50.95°N, 3.12°E
Report Text: EBOS 221220Z 31017KT 9999 SCT028 13/05 Q1023 NOSIG
Loading
Personal Weather Stations






























Interactive Weather Map
Tropical Storm Tracking
New forecast layout! Learn more

10-Day Weather Forecast

Advertisements
Track Severe Weather on mobile